createdAt,value
2022-11-08T00:02:28.351Z,11.56
2022-11-08T00:07:48.260Z,11.47
2022-11-08T00:13:07.876Z,11.45
2022-11-08T00:18:09.221Z,11.42
2022-11-08T00:23:10.543Z,11.40
2022-11-08T00:28:11.883Z,11.35
2022-11-08T00:33:13.216Z,11.32
2022-11-08T00:38:14.746Z,11.24
2022-11-08T00:43:16.388Z,11.21
2022-11-08T00:48:18.275Z,11.15
2022-11-08T00:53:19.741Z,11.08
2022-11-08T00:58:24.930Z,11.02
2022-11-08T01:03:28.600Z,10.93
2022-11-08T01:08:29.962Z,10.86
2022-11-08T01:13:31.957Z,10.81
2022-11-08T01:18:33.416Z,10.75
2022-11-08T01:23:34.947Z,10.67
2022-11-08T01:28:36.358Z,10.60
2022-11-08T01:33:38.535Z,10.59
2022-11-08T01:38:40.426Z,10.53
2022-11-08T01:43:42.946Z,10.50
2022-11-08T01:48:56.136Z,10.48
2022-11-08T01:54:00.196Z,10.46
2022-11-08T01:59:03.593Z,10.40
2022-11-08T02:04:05.761Z,10.33
2022-11-08T02:09:10.627Z,10.30
2022-11-08T02:14:12.358Z,10.22
2022-11-08T02:19:22.475Z,10.19
2022-11-08T02:24:24.136Z,10.13
2022-11-08T02:29:34.447Z,10.10
2022-11-08T02:34:45.322Z,10.05
2022-11-08T02:39:47.870Z,10.02
2022-11-08T02:44:49.776Z,9.96
2022-11-08T02:49:51.199Z,9.90
2022-11-08T02:54:52.564Z,9.83
2022-11-08T02:59:53.932Z,9.81
2022-11-08T03:04:55.285Z,9.79
2022-11-08T03:09:56.645Z,9.72
2022-11-08T03:14:58.085Z,9.70
2022-11-08T03:19:59.689Z,9.67
2022-11-08T03:25:01.077Z,9.63
2022-11-08T03:30:02.593Z,9.59
2022-11-08T03:35:04.209Z,9.57
2022-11-08T03:40:06.178Z,9.51
2022-11-08T03:45:08.022Z,9.48
2022-11-08T03:50:09.923Z,9.44
2022-11-08T03:55:12.231Z,9.39
2022-11-08T04:00:16.685Z,9.36
2022-11-08T04:05:19.010Z,9.28
2022-11-08T04:10:20.348Z,9.27
2022-11-08T04:15:23.253Z,9.21
2022-11-08T04:20:43.234Z,9.14
2022-11-08T04:25:45.310Z,9.08
2022-11-08T04:30:52.055Z,9.05
2022-11-08T04:35:54.115Z,9.00
2022-11-08T04:41:02.727Z,8.93
2022-11-08T04:46:10.852Z,8.83
2022-11-08T04:51:17.828Z,8.81
2022-11-08T04:56:21.188Z,8.82
2022-11-08T05:01:25.380Z,8.84
2022-11-08T05:06:32.021Z,8.79
2022-11-08T05:11:33.427Z,8.77
2022-11-08T05:16:34.843Z,8.77
2022-11-08T05:21:54.587Z,8.76
2022-11-08T05:26:55.956Z,8.67
2022-11-08T05:31:57.422Z,8.64
2022-11-08T05:36:58.749Z,8.60
2022-11-08T05:42:00.166Z,8.51
2022-11-08T05:47:01.491Z,8.52
2022-11-08T05:52:03.103Z,8.51
2022-11-08T05:57:04.504Z,8.37
2022-11-08T06:02:05.953Z,8.40
2022-11-08T06:07:07.567Z,8.41
2022-11-08T06:12:09.259Z,8.40
2022-11-08T06:17:10.607Z,8.40
2022-11-08T06:22:12.107Z,8.38
2022-11-08T06:27:14.538Z,8.37
2022-11-08T06:32:16.002Z,8.37
2022-11-08T06:37:17.424Z,8.39
2022-11-08T06:42:18.831Z,8.38
2022-11-08T06:47:20.268Z,8.35
2022-11-08T06:52:21.640Z,8.38
2022-11-08T06:57:22.986Z,8.46
2022-11-08T07:02:24.484Z,8.50
2022-11-08T07:07:25.927Z,8.56
2022-11-08T07:12:27.261Z,8.73
2022-11-08T07:17:28.610Z,8.82
2022-11-08T07:22:29.970Z,8.93
2022-11-08T07:27:31.314Z,9.01
2022-11-08T07:32:32.666Z,9.03
2022-11-08T07:37:34.079Z,9.12
2022-11-08T07:43:05.139Z,9.24
2022-11-08T07:48:09.762Z,9.33
2022-11-08T07:53:12.717Z,9.44
2022-11-08T07:58:15.245Z,9.56
2022-11-08T08:03:17.251Z,9.70
2022-11-08T08:08:19.676Z,9.81
2022-11-08T08:13:21.273Z,9.96
2022-11-08T08:18:22.898Z,10.11
2022-11-08T08:23:24.428Z,10.24
2022-11-08T08:28:25.828Z,10.36
2022-11-08T08:33:34.086Z,10.43
2022-11-08T08:38:41.492Z,10.56
2022-11-08T08:43:45.590Z,10.68
2022-11-08T08:48:46.944Z,10.90
2022-11-08T08:53:48.293Z,11.15
2022-11-08T09:04:11.457Z,11.45
2022-11-08T09:09:12.776Z,11.51
2022-11-08T09:14:14.484Z,11.61
2022-11-08T09:19:15.867Z,11.70
2022-11-08T09:24:17.250Z,11.79
2022-11-08T09:29:18.740Z,11.88
2022-11-08T09:34:21.717Z,11.97
2022-11-08T09:39:23.358Z,12.10
2022-11-08T09:44:59.159Z,12.37
2022-11-08T09:50:26.907Z,12.75
2022-11-08T09:55:35.051Z,13.21
2022-11-08T10:00:40.147Z,13.46
2022-11-08T10:05:49.044Z,13.60
2022-11-08T10:11:07.379Z,13.76
2022-11-08T10:16:17.697Z,13.98
2022-11-08T10:21:37.749Z,14.05
2022-11-08T10:26:45.684Z,14.29
2022-11-08T10:31:49.525Z,14.39
2022-11-08T10:37:02.749Z,14.53
2022-11-08T10:42:15.390Z,14.72
2022-11-08T10:47:29.255Z,14.80
2022-11-08T10:52:36.993Z,14.98
2022-11-08T10:57:42.588Z,15.11
2022-11-08T11:02:45.719Z,15.33
2022-11-08T11:08:00.750Z,15.60
2022-11-08T11:13:18.897Z,15.73
2022-11-08T11:18:33.094Z,15.75
2022-11-08T11:23:39.308Z,15.94
2022-11-08T11:28:59.431Z,15.87
2022-11-08T11:34:26.638Z,15.88
2022-11-08T11:39:37.246Z,15.86
2022-11-08T11:45:17.393Z,15.94
2022-11-08T11:50:38.700Z,16.02
2022-11-08T11:56:03.571Z,16.18
2022-11-08T12:01:25.168Z,16.15
2022-11-08T12:06:40.620Z,16.17
2022-11-08T12:12:14.447Z,16.16
2022-11-08T12:18:02.764Z,16.16
2022-11-08T12:23:17.843Z,16.16
2022-11-08T12:28:41.955Z,16.16
2022-11-08T12:33:57.652Z,16.14
2022-11-08T12:39:40.881Z,16.09
2022-11-08T12:45:08.707Z,16.17
2022-11-08T12:50:24.038Z,16.10
2022-11-08T12:55:34.466Z,16.10
2022-11-08T13:00:39.296Z,16.18
2022-11-08T13:05:54.408Z,16.06
2022-11-08T13:11:03.665Z,16.07
2022-11-08T13:16:25.459Z,16.02
2022-11-08T13:21:38.462Z,16.11
2022-11-08T13:26:43.460Z,16.20
2022-11-08T13:31:57.086Z,16.42
2022-11-08T13:37:36.245Z,16.32
2022-11-08T13:42:56.209Z,16.33
2022-11-08T13:48:03.069Z,16.57
2022-11-08T13:53:20.117Z,16.65
2022-11-08T13:58:45.479Z,16.73
2022-11-08T14:03:46.809Z,16.85
2022-11-08T14:09:12.880Z,16.83
2022-11-08T14:14:23.722Z,17.00
2022-11-08T14:19:27.316Z,16.96
2022-11-08T14:24:37.141Z,17.02
2022-11-08T14:29:38.564Z,17.12
2022-11-08T14:34:40.017Z,17.10
2022-11-08T14:39:46.214Z,17.07
2022-11-08T14:44:47.940Z,17.01
2022-11-08T14:49:49.345Z,17.03
2022-11-08T14:55:11.320Z,17.02
2022-11-08T15:00:12.750Z,16.91
2022-11-08T15:05:32.076Z,16.84
2022-11-08T15:10:33.971Z,16.72
2022-11-08T15:15:35.349Z,16.67
2022-11-08T15:20:37.165Z,16.51
2022-11-08T15:25:38.691Z,16.35
2022-11-08T15:30:43.278Z,16.34
2022-11-08T15:35:46.981Z,16.26
2022-11-08T15:40:53.990Z,16.26
2022-11-08T15:45:55.497Z,16.32
2022-11-08T15:50:57.964Z,16.32
2022-11-08T15:56:04.688Z,16.16
2022-11-08T16:01:06.710Z,15.98
2022-11-08T16:06:11.593Z,15.91
2022-11-08T16:11:21.799Z,15.80
2022-11-08T16:16:23.248Z,15.66
2022-11-08T16:21:24.784Z,15.68
2022-11-08T16:26:26.223Z,15.74
2022-11-08T16:31:27.591Z,15.71
2022-11-08T16:36:29.234Z,15.69
2022-11-08T16:41:30.578Z,15.66
2022-11-08T16:46:31.952Z,15.65
2022-11-08T16:51:33.748Z,15.60
2022-11-08T16:56:35.118Z,15.54
2022-11-08T17:01:37.048Z,15.48
2022-11-08T17:06:38.614Z,15.36
2022-11-08T17:11:40.730Z,15.27
2022-11-08T17:16:42.167Z,15.18
2022-11-08T17:21:45.071Z,15.08
2022-11-08T17:26:46.985Z,15.04
2022-11-08T17:31:49.454Z,15.02
2022-11-08T17:36:52.777Z,14.99
2022-11-08T17:41:54.193Z,14.94
2022-11-08T17:46:55.577Z,14.94
2022-11-08T17:51:56.961Z,14.93
2022-11-08T17:56:58.324Z,14.87
2022-11-08T18:01:59.811Z,14.81
2022-11-08T18:07:01.325Z,14.73
2022-11-08T18:12:02.885Z,14.69
2022-11-08T18:17:05.006Z,14.58
2022-11-08T18:22:06.389Z,14.48
2022-11-08T18:27:07.739Z,14.40
2022-11-08T18:32:09.157Z,14.36
2022-11-08T18:37:10.759Z,14.25
2022-11-08T18:42:12.127Z,14.25
2022-11-08T18:47:13.449Z,14.25
2022-11-08T18:52:15.212Z,14.24
2022-11-08T18:57:16.696Z,14.20
2022-11-08T19:02:18.166Z,14.19
2022-11-08T19:07:20.127Z,14.18
2022-11-08T19:12:21.520Z,14.13
2022-11-08T19:17:22.865Z,14.08
2022-11-08T19:22:24.289Z,13.89
2022-11-08T19:27:25.767Z,13.96
2022-11-08T19:32:27.149Z,13.97
2022-11-08T19:37:28.501Z,13.95
2022-11-08T19:42:29.984Z,13.93
2022-11-08T19:47:31.359Z,13.88
2022-11-08T19:52:32.714Z,13.88
2022-11-08T19:57:34.941Z,13.86
2022-11-08T20:02:37.683Z,13.64
2022-11-08T20:07:39.025Z,13.70
2022-11-08T20:12:40.558Z,13.71
2022-11-08T20:17:42.574Z,13.73
2022-11-08T20:22:47.967Z,13.73
2022-11-08T20:27:50.686Z,13.73
2022-11-08T20:32:52.031Z,13.74
2022-11-08T20:37:56.964Z,13.75
2022-11-08T20:42:58.309Z,13.79
2022-11-08T20:48:02.693Z,13.79
2022-11-08T20:53:04.378Z,13.74
2022-11-08T20:58:05.757Z,13.78
2022-11-08T21:03:07.114Z,13.83
2022-11-08T21:08:57.998Z,13.84
2022-11-08T21:13:32.713Z,13.76
2022-11-08T21:18:35.370Z,13.78
2022-11-08T21:23:39.234Z,13.81
2022-11-08T21:28:41.285Z,13.75
2022-11-08T21:33:43.223Z,13.59
2022-11-08T21:38:44.807Z,13.64
2022-11-08T21:43:47.498Z,13.67
2022-11-08T21:48:57.259Z,13.71
2022-11-08T21:53:59.126Z,13.71
2022-11-08T21:59:01.279Z,13.68
2022-11-08T22:04:02.614Z,13.67
2022-11-08T22:09:04.124Z,13.66
2022-11-08T22:14:05.479Z,13.67
2022-11-08T22:19:06.982Z,13.71
2022-11-08T22:24:14.026Z,13.70
2022-11-08T22:29:16.234Z,13.71
2022-11-08T22:34:17.597Z,13.73
2022-11-08T22:39:21.970Z,13.74
2022-11-08T22:44:23.385Z,13.71
2022-11-08T22:49:24.726Z,13.72
2022-11-08T22:54:26.567Z,13.72
2022-11-08T22:59:28.003Z,13.70
2022-11-08T23:04:29.343Z,13.68
2022-11-08T23:09:30.675Z,13.64
2022-11-08T23:15:07.191Z,13.63
2022-11-08T23:20:27.662Z,13.58
2022-11-08T23:25:29.060Z,13.54
2022-11-08T23:30:48.942Z,13.56
2022-11-08T23:36:11.148Z,13.55
2022-11-08T23:41:31.219Z,13.48
2022-11-08T23:46:32.687Z,13.45
2022-11-08T23:51:34.199Z,13.41
2022-11-08T23:56:35.885Z,13.41
